Date,TemperatureHighF,TemperatureAvgF,TemperatureLowF,DewpointHighF,DewpointAvgF,DewpointLowF,HumidityHigh,HumidityAvg,HumidityLow,PressureMaxIn,PressureMinIn,WindSpeedMaxMPH,WindSpeedAvgMPH,GustSpeedMaxMPH,PrecipitationSumIn
2013-1-1,29.0,19.9,11.5,19.0,12.6,8.0,86,74,58,30.38,30.25,6,2,0,0.00
2013-1-2,30.7,24.8,19.4,14.0,8.9,4.0,65,51,40,30.44,30.28,27,12,0,0.00
2013-1-3,35.7,25.2,13.8,13.0,5.3,0.0,56,43,32,30.46,30.34,11,4,0,0.00
2013-1-4,44.8,31.2,19.5,18.0,10.3,3.0,55,42,28,30.34,30.09,15,5,0,0.00
2013-1-5,38.7,30.2,22.9,18.0,10.9,5.0,58,45,34,30.36,30.11,17,7,0,0.00
2013-1-6,44.3,30.8,16.5,18.0,10.8,0.0,66,44,29,30.35,30.00,10,3,0,0.00
2013-1-7,51.5,37.4,25.3,21.0,14.1,9.0,58,40,24,30.04,29.78,12,5,0,0.00
2013-1-8,53.5,38.5,25.8,23.0,18.7,15.0,66,47,28,30.22,29.78,11,5,0,0.00
2013-1-9,51.0,38.6,22.7,24.0,19.0,13.0,69,46,33,30.30,30.00,13,4,0,0.00
2013-1-10,39.1,31.0,23.6,24.0,19.6,15.0,73,63,51,30.00,29.48,9,4,0,0.00
2013-1-11,39.9,23.8,2.8,27.0,14.8,-2.0,89,70,38,29.93,29.31,28,8,0,0.00
2013-1-12,17.2,6.1,0.5,12.0,0.7,-4.0,84,79,69,30.39,29.94,7,3,0,0.04
2013-1-13,14.1,6.5,-0.4,8.0,0.6,-5.0,83,77,66,30.48,30.36,4,1,0,0.00
2013-1-14,15.6,6.8,1.7,3.0,-0.9,-5.0,81,71,56,30.52,30.39,11,3,0,0.00
2013-1-15,36.2,17.2,1.5,22.0,5.8,-7.0,75,62,49,30.46,30.34,21,4,0,0.00
2013-1-16,53.0,39.1,29.3,27.0,21.2,18.0,63,50,29,30.36,30.20,20,12,0,0.01
2013-1-17,47.4,36.4,26.9,24.0,18.5,13.0,59,49,34,30.47,30.23,11,5,0,0.00
2013-1-18,59.0,44.1,30.5,18.0,11.5,8.0,45,28,16,30.21,29.98,23,9,0,0.00
2013-1-19,53.3,43.4,31.0,17.0,12.6,8.0,45,29,22,30.15,29.99,22,7,0,0.00
2013-1-20,50.3,34.7,19.2,15.0,12.4,9.0,79,43,20,30.30,30.08,24,7,0,0.00
2013-1-21,53.3,35.0,15.4,23.0,16.1,10.0,83,52,24,30.27,30.08,10,3,0,0.00
2013-1-22,55.8,41.6,29.0,17.0,13.8,9.0,53,34,19,30.12,30.02,9,4,0,0.00
2013-1-23,64.1,45.6,32.0,21.0,9.5,-3.0,49,24,11,30.11,30.00,11,5,0,0.00
2013-1-24,61.0,43.0,25.1,28.0,19.7,12.0,62,42,19,30.07,29.93,29,8,0,0.00
2013-1-25,54.2,43.6,33.2,29.0,26.3,23.0,70,52,36,30.09,29.97,9,3,0,0.00
2013-1-26,51.6,42.4,34.3,30.0,27.0,22.0,68,55,42,29.98,29.69,9,2,0,0.00
2013-1-27,55.7,44.0,34.4,38.0,32.6,26.0,89,66,40,29.70,29.60,14,4,0,0.00
2013-1-28,46.8,34.7,25.6,34.0,25.6,17.0,82,70,48,29.74,29.49,27,9,0,0.00
2013-1-29,31.0,23.2,13.4,21.0,14.2,6.0,88,70,43,30.07,29.73,25,8,0,0.08
2013-1-30,37.9,23.8,7.8,20.0,11.9,2.0,81,62,47,30.07,29.98,24,8,0,0.01
2013-1-31,36.1,29.2,19.7,26.0,20.7,15.0,85,72,50,30.22,30.00,17,6,0,0.00
2013-2-1,48.8,34.5,21.8,26.0,20.9,16.0,85,60,33,30.21,30.08,33,10,0,0.00
2013-2-2,53.0,36.6,24.8,26.0,20.4,15.0,77,55,27,30.31,30.21,12,3,0,0.00
2013-2-3,54.1,39.8,29.5,21.0,15.0,7.0,58,39,21,30.27,29.87,18,4,0,0.00
2013-2-4,51.8,38.7,26.9,17.0,12.9,7.0,54,36,23,29.95,29.79,12,4,0,0.00
2013-2-5,53.3,39.8,26.7,23.0,18.8,14.0,59,44,30,30.05,29.80,17,6,0,0.00
2013-2-6,52.6,42.4,31.4,25.0,21.5,17.0,61,44,32,30.03,29.73,22,10,0,0.00
2013-2-7,46.7,35.3,23.9,26.0,19.7,13.0,78,56,32,30.14,30.03,14,5,0,0.00
2013-2-8,50.3,33.3,21.0,23.0,16.1,13.0,76,53,26,30.04,29.73,12,4,0,0.00
2013-2-9,40.1,31.7,25.3,26.0,19.7,15.0,73,62,45,29.73,29.52,21,12,0,0.00
2013-2-10,35.1,27.9,16.2,19.0,13.2,8.0,75,56,33,30.14,29.61,28,14,0,0.00
2013-2-11,30.1,22.7,14.4,18.0,12.7,4.0,86,67,48,30.21,30.12,13,3,0,0.00
2013-2-12,45.1,28.5,11.6,13.0,6.8,0.0,64,43,18,30.19,30.09,13,5,0,0.00
2013-2-13,49.9,33.4,21.2,17.0,13.3,9.0,61,45,27,30.14,29.95,30,8,0,0.00
2013-2-14,35.8,27.4,22.9,24.0,17.1,11.0,87,67,42,30.37,30.04,26,7,0,0.00
2013-2-15,37.9,26.9,18.9,24.0,16.3,12.0,87,68,34,30.43,30.34,33,10,0,0.04
2013-2-16,58.7,38.3,21.3,22.0,15.8,10.0,75,45,20,30.32,29.95,26,6,0,0.00
2013-2-17,59.6,42.1,29.4,19.0,11.6,5.0,66,32,12,29.94,29.46,33,9,0,0.00
2013-2-18,42.3,30.8,19.0,20.0,10.9,3.0,68,47,22,30.15,29.70,30,15,0,0.00
2013-2-19,41.5,27.0,17.5,16.0,13.5,10.0,82,60,33,30.16,29.92,16,4,0,0.00
2013-2-20,36.1,23.0,17.2,24.0,16.7,11.0,88,77,51,29.92,29.75,17,7,0,0.00
2013-2-21,28.4,20.2,13.6,23.0,16.3,10.0,87,84,77,30.05,29.87,22,6,0,0.06
2013-2-22,35.1,23.3,10.1,25.0,17.3,7.0,89,78,58,30.12,29.97,11,4,0,0.01
2013-2-23,38.6,28.5,17.7,25.0,17.4,12.0,86,65,44,29.97,29.71,12,3,0,0.00
2013-2-24,28.8,26.0,16.6,26.0,22.4,11.0,91,86,75,30.21,29.79,22,11,0,0.03
2013-2-25,34.9,21.9,14.3,21.0,14.4,9.0,82,73,56,30.23,29.99,12,3,0,0.13
2013-2-26,34.7,27.8,20.7,24.0,17.9,11.0,81,67,53,30.23,29.93,24,14,0,0.00
2013-2-27,38.3,28.2,18.3,18.0,14.1,9.0,70,57,32,30.34,30.23,21,10,0,0.00
2013-2-28,44.2,31.8,18.0,19.0,13.5,6.0,71,49,27,30.34,30.25,14,5,0,0.00
2013-3-1,42.9,35.6,26.1,24.0,19.8,15.0,65,54,41,30.33,30.25,19,6,0,0.00
2013-3-2,59.8,45.7,33.0,30.0,25.6,20.0,64,47,28,30.31,29.94,10,3,0,0.00
2013-3-3,63.0,48.5,37.8,31.0,26.7,24.0,61,45,25,29.93,29.52,24,7,0,0.00
2013-3-4,45.9,28.8,19.8,28.0,17.4,7.0,84,64,43,30.30,29.53,33,12,0,0.04
2013-3-5,39.3,26.5,14.3,20.0,14.2,8.0,76,62,38,30.45,30.25,11,4,0,0.00
2013-3-6,53.4,37.3,21.7,28.0,22.8,16.0,81,58,35,30.25,29.84,11,3,0,0.00
2013-3-7,62.2,46.2,31.4,31.0,25.9,23.0,71,49,25,29.92,29.81,18,6,0,0.00
2013-3-8,47.4,37.6,30.1,31.0,28.4,24.0,82,70,54,29.88,29.67,14,4,0,0.00
2013-3-9,37.9,33.7,27.9,30.0,23.0,13.0,86,66,44,30.12,29.62,35,17,0,0.03
2013-3-10,50.3,36.6,22.9,22.0,16.1,11.0,68,46,28,30.17,30.01,38,16,0,0.00
2013-3-11,55.4,40.8,30.1,28.0,22.5,17.0,89,53,26,30.12,29.83,34,14,0,0.00
2013-3-12,37.1,30.2,23.1,28.0,24.7,20.0,90,80,66,30.35,30.13,8,3,0,0.26
2013-3-13,60.7,43.9,27.4,38.0,29.7,23.0,86,62,35,30.33,30.18,11,3,0,0.01
2013-3-14,67.9,54.5,41.8,33.0,29.3,25.0,57,39,25,30.19,29.93,11,4,0,0.00
2013-3-15,75.1,60.5,48.5,33.0,26.9,23.0,48,29,17,29.93,29.63,31,10,0,0.00
2013-3-16,55.9,46.1,37.1,34.0,30.2,27.0,75,55,35,29.82,29.66,18,8,0,0.00
2013-3-17,56.6,40.0,28.8,38.0,23.9,3.0,88,57,28,29.82,29.46,41,13,0,0.01
2013-3-18,50.8,38.5,25.5,17.0,9.1,2.0,41,30,18,29.92,29.80,33,14,0,0.00
2013-3-19,53.8,38.4,23.9,18.0,9.3,0.0,71,36,13,30.35,29.90,31,14,0,0.00
2013-3-20,46.9,33.4,20.4,23.0,18.4,15.0,83,57,34,30.35,29.76,6,2,0,0.00
2013-3-21,52.2,40.3,32.7,34.0,19.1,9.0,61,44,22,29.78,29.52,33,12,0,0.00
2013-3-22,40.0,31.2,23.5,28.0,17.2,7.0,88,59,37,29.98,29.73,25,10,0,0.00
2013-3-23,25.4,20.3,16.7,21.0,15.7,10.0,87,82,72,30.35,29.97,23,10,0,0.00
2013-3-24,30.9,20.8,12.3,18.0,11.2,6.0,77,67,46,30.41,30.26,17,6,0,0.02
2013-3-25,34.4,22.8,12.7,18.0,13.3,8.0,86,68,46,30.45,30.36,13,4,0,0.00
2013-3-26,44.6,31.7,17.9,31.0,17.7,7.0,80,58,37,30.36,30.03,12,3,0,0.00
2013-3-27,53.0,41.9,33.6,36.0,31.3,29.0,86,68,42,30.09,29.99,12,4,0,0.00
2013-3-28,67.2,47.8,32.3,35.0,30.9,26.0,81,57,25,30.05,29.95,13,5,0,0.00
2013-3-29,67.7,52.9,38.0,34.0,31.0,27.0,67,45,24,30.01,29.87,31,8,0,0.00
2013-3-30,66.2,46.7,36.1,39.0,31.2,-99.9,84,59,25,30.11,29.87,30,8,0,0.06
2013-3-31,69.7,48.4,31.7,39.0,29.8,23.0,86,56,19,30.11,29.83,17,4,0,0.01
2013-4-1,51.1,39.4,27.1,31.0,26.9,21.0,79,62,47,30.10,29.96,15,6,0,0.00
2013-4-2,44.2,38.0,33.2,36.0,31.3,27.0,86,77,66,30.12,30.04,13,5,0,0.00
2013-4-3,60.2,45.3,34.3,38.0,33.4,28.0,91,67,36,30.13,29.97,14,5,0,0.00
2013-4-4,70.2,54.0,36.4,37.0,32.1,28.0,74,47,24,30.06,29.81,18,7,0,0.00
2013-4-5,72.8,54.5,45.8,38.0,31.3,28.0,62,44,20,29.81,29.48,33,7,0,0.04
2013-4-6,64.3,54.2,43.9,29.0,25.5,23.0,46,34,24,29.76,29.66,25,9,0,0.00
2013-4-7,64.0,50.9,38.2,40.0,33.1,28.0,83,55,28,29.68,29.51,23,6,0,0.02
2013-4-8,67.5,43.4,22.2,35.0,29.6,17.0,79,61,24,29.76,29.27,41,14,0,0.00
2013-4-9,21.9,16.4,12.4,17.0,10.7,6.0,83,78,72,30.42,29.77,31,18,0,0.00
2013-4-10,30.3,18.4,8.2,23.0,12.4,2.0,84,77,68,30.41,30.11,18,7,0,0.00
2013-4-11,54.9,36.1,15.9,31.0,23.1,12.0,85,63,34,30.10,29.85,33,10,0,0.01
2013-4-12,53.6,41.1,32.1,35.0,30.1,27.0,88,67,43,29.94,29.81,25,8,0,0.00
2013-4-13,60.9,44.5,28.9,37.0,30.9,26.0,91,64,28,29.93,29.33,30,9,0,0.28
2013-4-14,45.1,41.0,33.9,36.0,14.6,7.0,79,35,24,29.69,29.41,40,21,0,0.01
2013-4-15,34.8,25.0,23.0,24.0,21.5,16.0,91,87,46,30.16,29.66,18,8,0,0.09
2013-4-16,30.2,26.8,22.7,28.0,24.8,20.0,93,92,90,30.16,29.99,23,9,0,0.01
2013-4-17,29.1,25.7,18.5,27.0,23.9,16.0,93,92,90,30.27,30.03,14,6,0,0.00
2013-4-18,32.6,23.2,14.7,29.0,20.1,12.0,91,88,79,30.30,30.24,26,14,0,0.01
2013-4-19,54.5,38.5,23.9,37.0,26.5,19.0,83,65,32,30.28,29.95,15,4,0,0.04
2013-4-20,56.6,44.3,32.7,36.0,31.0,26.0,77,61,40,29.95,29.85,16,4,0,0.00
2013-4-21,61.0,48.6,38.6,37.0,32.2,27.0,80,56,29,29.97,29.85,16,4,0,0.00
2013-4-22,43.1,31.9,22.7,38.0,27.7,20.0,90,85,66,30.35,29.77,29,10,0,0.02
2013-4-23,33.6,26.5,18.0,27.0,21.4,15.0,90,81,70,30.41,30.27,12,4,0,0.18
2013-4-24,54.9,40.0,26.2,29.0,23.6,19.0,82,56,26,30.28,30.15,14,5,0,0.00
2013-4-25,63.9,47.8,32.0,30.0,24.9,20.0,72,45,22,30.15,29.83,11,4,0,0.00
2013-4-26,69.2,55.8,42.4,27.0,23.7,20.0,52,31,18,30.04,29.90,19,7,0,0.00
2013-4-27,74.3,59.3,41.4,29.0,25.5,21.0,52,30,15,30.03,29.80,27,10,0,0.00
2013-4-28,79.1,64.7,48.8,36.0,30.5,23.0,46,29,18,29.80,29.56,22,8,0,0.00
2013-4-29,79.0,64.7,48.5,41.0,34.6,26.0,63,36,18,29.65,29.31,27,8,0,0.00
2013-4-30,66.2,47.6,33.7,40.0,33.8,28.0,90,62,24,29.92,29.32,30,10,0,0.71
2013-5-1,33.4,29.5,21.5,31.0,26.3,17.0,92,87,76,30.71,29.92,17,7,0,0.43
2013-5-2,45.0,31.6,18.9,29.0,20.2,15.0,86,66,33,30.83,30.51,15,7,0,0.07
2013-5-3,60.2,45.4,29.4,34.0,27.0,20.0,70,51,32,30.51,30.04,10,4,0,0.00
2013-5-4,58.1,47.1,36.6,32.0,29.6,26.0,72,52,33,30.15,30.00,14,6,0,0.00
2013-5-5,58.2,47.0,33.2,31.0,26.6,21.0,71,47,32,30.16,30.00,15,6,0,0.00
2013-5-6,66.6,52.0,36.2,39.0,32.7,28.0,75,51,29,30.00,29.75,12,5,0,0.00
2013-5-7,65.9,54.3,42.9,47.0,39.9,35.0,78,60,37,29.82,29.70,15,7,0,0.00
2013-5-8,66.7,53.2,47.2,45.0,41.9,38.0,89,68,39,29.92,29.75,17,8,0,0.52
2013-5-9,58.3,50.1,45.0,48.0,40.5,-99.9,87,72,53,30.07,29.92,13,7,0,0.41
2013-5-10,67.1,54.1,40.6,48.0,39.2,34.0,88,61,29,30.16,30.03,15,6,0,0.03
2013-5-11,66.0,54.1,45.9,46.0,42.3,37.0,83,65,48,30.24,30.05,17,6,0,0.00
2013-5-12,78.4,64.6,49.0,46.0,40.4,35.0,82,45,25,30.07,29.82,23,9,0,0.00
2013-5-13,86.8,72.8,59.0,49.0,42.3,37.0,49,34,20,29.85,29.66,17,8,0,0.00
2013-5-14,85.0,71.9,61.3,50.0,42.6,37.0,50,36,23,29.66,29.53,38,7,0,0.00
2013-5-15,81.4,67.0,55.7,51.0,44.0,39.0,73,46,25,29.67,29.55,18,7,0,0.00
2013-5-16,80.6,66.1,52.0,52.0,46.4,38.0,84,53,25,29.64,29.50,21,5,0,0.00
2013-5-17,85.6,69.7,55.2,52.0,43.1,29.0,74,43,18,29.60,29.41,19,5,0,0.00
2013-5-18,77.6,64.8,52.8,40.0,35.9,27.0,52,36,21,29.57,29.43,32,11,0,0.00
2013-5-19,68.0,59.0,50.1,38.0,34.9,32.0,57,41,28,29.62,29.49,25,15,0,0.00
2013-5-20,62.5,53.7,46.6,45.0,40.6,35.0,86,63,43,29.84,29.63,33,15,0,0.29
2013-5-21,68.1,56.0,43.9,37.0,34.1,31.0,66,46,28,29.88,29.69,26,14,0,0.00
2013-5-22,72.2,57.5,42.7,45.0,38.4,32.0,79,51,33,29.89,29.68,20,7,0,0.00
2013-5-23,66.6,54.4,47.0,51.0,46.7,43.0,89,77,52,29.92,29.79,21,11,0,0.00
2013-5-24,81.8,63.6,48.1,55.0,47.0,36.0,92,62,20,29.82,29.66,12,5,0,0.00
2013-5-25,84.2,69.6,52.3,56.0,47.8,37.0,85,51,20,29.72,29.53,15,6,0,0.00
2013-5-26,81.8,70.0,56.2,48.0,39.9,31.0,58,35,17,29.59,29.50,20,6,0,0.00
2013-5-27,83.3,67.6,51.9,42.0,37.1,30.0,67,35,16,29.53,29.41,22,6,0,0.00
2013-5-28,80.3,63.2,49.3,49.0,42.3,37.0,66,48,24,29.54,29.27,16,6,0,0.00
2013-5-29,65.2,54.2,46.6,49.0,44.1,34.0,89,70,45,29.51,29.34,15,6,0,0.42
2013-5-30,69.0,58.5,46.5,38.0,32.9,29.0,69,40,23,29.64,29.45,37,16,0,0.00
2013-5-31,69.9,59.3,44.3,35.0,28.6,25.0,50,33,21,29.83,29.62,33,18,0,0.00
2013-6-1,71.7,58.9,50.4,38.0,35.6,33.0,54,43,26,30.01,29.83,29,13,0,0.00
2013-6-2,81.5,62.3,43.9,99.9,38.9,33.0,68,43,24,30.01,29.55,11,4,0,0.00
2013-6-3,89.4,70.1,52.4,46.0,38.2,23.0,60,35,16,29.62,29.41,20,7,0,0.00
2013-6-4,73.4,60.0,48.6,48.0,44.1,36.0,75,57,39,29.98,29.62,31,8,0,0.02
2013-6-5,62.8,53.7,47.0,46.0,42.5,39.0,80,66,52,30.04,29.94,12,3,0,0.00
2013-6-6,79.2,63.1,45.9,50.0,43.3,40.0,86,54,26,29.95,29.80,11,4,0,0.00
2013-6-7,83.0,66.6,51.0,50.0,44.9,40.0,81,49,28,29.88,29.47,15,4,0,0.00
2013-6-8,80.4,68.0,59.9,49.0,43.3,38.0,64,42,22,29.74,29.42,33,11,0,0.00
2013-6-9,86.8,70.8,49.7,48.0,43.1,39.0,68,40,22,29.77,29.59,11,4,0,0.00
2013-6-10,98.1,78.6,57.2,52.0,43.7,38.0,52,31,16,29.58,29.44,25,5,0,0.00
2013-6-11,96.4,80.5,62.9,50.0,38.7,28.0,53,25,10,29.59,29.36,25,9,0,0.00
2013-6-12,88.8,76.3,61.2,54.0,41.2,27.0,67,30,18,29.78,29.60,33,9,0,0.00
2013-6-13,82.7,66.2,52.9,58.0,52.7,48.0,85,64,41,29.81,29.57,15,5,0,0.00
2013-6-14,89.0,73.6,57.7,52.0,45.9,37.0,75,42,16,29.67,29.54,21,9,0,0.01
2013-6-15,78.6,67.4,53.7,55.0,48.2,42.0,82,52,31,29.79,29.64,16,6,0,0.15
2013-6-16,81.9,68.6,55.5,61.0,49.9,39.0,88,56,25,29.80,29.73,20,6,0,0.00
2013-6-17,80.9,66.5,53.0,55.0,50.2,45.0,81,59,29,29.88,29.73,18,6,0,0.00
2013-6-18,83.0,66.9,53.0,56.0,50.1,45.0,80,58,33,29.86,29.59,19,6,0,0.00
2013-6-19,93.0,72.5,53.5,55.0,48.2,35.0,83,50,13,29.72,29.34,16,6,0,0.00
2013-6-20,87.5,74.6,62.0,57.0,40.0,27.0,81,33,15,29.57,29.40,20,9,0,0.00
2013-6-21,92.3,75.5,62.3,61.0,49.4,37.0,74,46,14,29.55,29.38,34,6,0,0.00
2013-6-22,86.3,69.1,55.8,58.0,50.6,43.0,73,54,22,29.61,29.42,17,6,0,0.00
2013-6-23,81.1,66.9,50.7,51.0,45.5,33.0,72,48,32,29.75,29.54,20,7,0,0.00
2013-6-24,90.6,74.7,58.0,54.0,45.0,34.0,68,39,15,29.61,29.38,13,5,0,0.00
2013-6-25,89.5,78.8,66.4,44.0,39.6,33.0,33,25,19,29.61,29.44,28,9,0,0.00
2013-6-26,94.6,80.5,62.3,51.0,44.1,39.0,43,29,18,29.71,29.61,11,3,0,0.00
2013-6-27,95.6,83.5,71.3,52.0,44.6,37.0,43,27,13,29.82,29.66,19,9,0,0.00
2013-6-28,94.7,76.7,62.0,60.0,54.1,47.0,78,48,25,29.88,29.69,22,7,0,0.44
2013-6-29,87.0,73.1,61.0,62.0,55.9,53.0,78,57,34,29.87,29.75,13,5,0,0.00
2013-6-30,79.6,69.5,61.1,56.0,53.5,52.0,73,58,41,29.90,29.81,13,5,0,0.00
2013-7-1,78.0,64.9,55.3,59.0,51.9,-99.9,82,65,41,30.02,29.89,17,6,0,0.27
2013-7-2,80.0,68.2,54.4,56.0,52.4,48.0,86,60,37,29.99,29.84,19,4,0,0.00
2013-7-3,85.8,71.9,54.5,55.0,48.3,43.0,70,46,27,29.83,29.59,10,3,0,0.00
2013-7-4,90.0,77.8,65.0,54.0,48.5,44.0,62,37,23,29.62,29.50,16,8,0,0.00
2013-7-5,90.1,72.8,65.1,62.0,54.4,48.0,81,54,30,29.53,29.44,21,4,0,0.18
2013-7-6,90.5,75.4,63.4,57.0,52.6,47.0,78,48,24,29.60,29.50,18,8,0,0.00
2013-7-7,87.0,74.1,63.3,60.0,56.5,52.0,76,56,37,29.71,29.57,18,5,0,0.00
2013-7-8,91.7,73.4,59.7,60.0,54.1,48.0,83,56,24,29.75,29.66,29,4,0,0.00
2013-7-9,95.8,80.5,65.9,51.0,46.6,42.0,53,32,16,29.83,29.70,20,5,0,0.00
2013-7-10,89.2,74.3,62.8,63.0,55.4,49.0,67,53,34,29.84,29.64,18,6,0,0.00
2013-7-11,97.1,77.2,60.0,62.0,55.0,48.0,77,50,19,29.76,29.47,22,6,0,0.00
2013-7-12,89.8,75.3,65.8,64.0,56.0,49.0,84,54,31,29.68,29.51,24,5,0,0.10
2013-7-13,89.5,72.9,63.4,65.0,61.0,58.0,87,69,37,29.83,29.67,25,3,0,0.18
2013-7-14,77.6,69.2,60.2,64.0,60.5,56.0,90,75,57,29.91,29.74,17,6,0,0.01
2013-7-15,79.2,69.6,63.3,65.0,59.9,49.0,92,73,49,29.91,29.76,16,6,0,0.00
2013-7-16,82.5,69.5,55.7,57.0,51.3,48.0,79,55,34,29.94,29.82,17,8,0,0.00
2013-7-17,88.4,72.5,56.9,59.0,55.2,51.0,90,59,31,29.93,29.74,12,6,0,0.00
2013-7-18,91.1,70.1,60.0,62.0,55.3,-99.9,87,65,27,29.86,29.67,29,8,0,1.05
2013-7-19,76.9,69.4,62.4,64.0,58.9,56.0,87,70,51,29.89,29.77,20,7,0,0.00
2013-7-20,85.3,69.8,59.5,63.0,56.9,47.0,87,66,31,29.78,29.62,21,4,0,0.00
2013-7-21,83.9,69.3,57.3,64.0,58.4,53.0,89,70,44,29.70,29.56,21,4,0,0.00
2013-7-22,88.8,77.7,64.1,62.0,57.7,54.0,75,52,32,29.64,29.54,16,7,0,0.00
2013-7-23,84.4,74.3,62.5,60.0,55.5,34.0,76,53,33,29.80,29.55,15,6,0,0.00
2013-7-24,84.0,71.1,60.9,63.0,57.2,47.0,87,64,31,29.89,29.67,29,6,0,0.00
2013-7-25,78.7,67.0,58.6,62.0,55.6,50.0,91,68,47,29.95,29.75,23,6,0,0.04
2013-7-26,85.0,70.0,57.6,58.0,52.5,47.0,85,56,30,29.99,29.81,17,4,0,0.00
2013-7-27,70.7,63.3,56.0,56.0,52.7,48.0,82,69,59,29.87,29.77,17,6,0,0.00
2013-7-28,70.7,62.6,58.1,61.0,57.6,54.0,91,84,67,29.85,29.68,7,3,0,0.08
2013-7-29,75.8,64.6,59.0,64.0,56.0,46.0,94,76,40,29.91,29.68,16,6,0,0.01
2013-7-30,87.3,71.4,58.6,56.0,52.4,47.0,75,53,27,29.95,29.83,13,4,0,0.00
2013-7-31,87.1,72.1,58.0,57.0,52.3,48.0,72,52,30,30.00,29.82,21,5,0,0.00
2013-8-1,88.0,70.9,57.3,62.0,55.8,52.0,90,62,31,29.89,29.63,17,4,0,0.00
2013-8-2,90.8,74.3,57.6,62.0,55.0,48.0,81,54,27,29.70,29.59,9,3,0,0.02
2013-8-3,87.7,68.6,59.2,65.0,59.6,53.0,93,75,37,29.93,29.67,31,6,0,0.90
2013-8-4,82.2,69.3,56.1,66.0,56.6,51.0,92,66,35,29.88,29.76,18,3,0,0.00
2013-8-5,85.5,72.8,65.3,57.0,52.7,47.0,69,51,36,29.77,29.66,18,6,0,0.00
2013-8-6,86.4,71.9,59.6,58.0,52.6,48.0,77,53,29,29.73,29.62,16,4,0,0.00
2013-8-7,72.0,64.9,59.0,59.0,55.9,49.0,89,74,59,29.79,29.74,16,5,0,0.00
2013-8-8,74.7,63.4,57.2,60.0,56.0,46.0,93,78,48,29.93,29.76,11,4,0,0.00
2013-8-9,77.4,65.6,53.8,58.0,52.1,47.0,84,64,38,29.95,29.86,17,5,0,0.00
2013-8-10,85.4,69.3,53.8,58.0,51.9,47.0,85,58,29,29.95,29.79,11,3,0,0.00
2013-8-11,80.4,70.5,61.2,54.0,50.4,47.0,72,51,32,29.88,29.79,14,4,0,0.01
2013-8-12,81.8,66.4,56.2,60.0,53.7,46.0,84,66,32,29.96,29.81,25,5,0,0.00
2013-8-13,77.9,65.9,53.5,56.0,51.5,48.0,87,62,38,29.97,29.87,13,4,0,0.00
2013-8-14,81.3,65.7,54.5,56.0,51.6,48.0,84,63,33,29.96,29.81,14,4,0,0.08
2013-8-15,82.9,69.1,56.4,57.0,51.2,46.0,78,55,34,29.89,29.80,12,4,0,0.00
2013-8-16,86.3,73.1,60.7,58.0,51.8,45.0,70,49,30,29.86,29.75,13,5,0,0.00
2013-8-17,90.0,73.7,60.2,64.0,58.0,52.0,91,63,28,29.82,29.65,15,4,0,0.00
2013-8-18,89.4,73.0,60.0,64.0,55.4,46.0,89,58,25,29.79,29.67,19,5,0,0.00
2013-8-19,91.9,77.2,60.4,59.0,50.9,46.0,68,43,22,29.78,29.62,13,6,0,0.00
2013-8-20,90.4,80.7,75.9,49.0,46.8,45.0,35,31,23,29.64,29.57,15,10,0,0.00
2013-8-21,91.2,79.9,67.7,56.0,50.4,44.0,61,37,29,29.75,29.63,19,9,0,0.00
2013-8-22,80.5,70.9,60.4,63.0,58.4,53.0,88,66,51,29.87,29.75,15,3,0,0.16
2013-8-23,85.2,71.4,59.0,61.0,56.9,49.0,90,64,36,29.85,29.61,19,5,0,0.00
2013-8-24,87.5,73.9,60.9,57.0,52.5,48.0,73,49,29,29.73,29.64,17,4,0,0.00
2013-8-25,88.9,75.7,64.2,56.0,52.7,48.0,66,47,28,29.77,29.68,22,7,0,0.00
2013-8-26,91.0,76.6,65.0,59.0,55.6,52.0,67,50,29,29.78,29.69,14,6,0,0.00
2013-8-27,90.5,79.0,67.5,59.0,56.1,53.0,68,47,31,29.76,29.62,13,5,0,0.00
2013-8-28,90.5,79.0,69.2,58.0,53.5,49.0,58,43,28,29.74,29.64,21,6,0,0.00
2013-8-29,93.8,79.9,69.2,56.0,50.7,46.0,50,37,25,29.76,29.70,19,8,0,0.00
2013-8-30,87.3,77.0,67.7,62.0,53.0,47.0,56,44,30,29.78,29.69,21,5,0,0.00
2013-8-31,90.6,75.1,62.7,58.0,52.5,47.0,71,48,23,29.79,29.66,24,6,0,0.00
2013-9-1,79.4,70.0,62.9,58.0,54.0,50.0,75,57,45,29.88,29.77,14,6,0,0.00
2013-9-2,88.7,72.5,56.8,62.0,55.5,50.0,86,59,30,29.84,29.68,10,3,0,0.00
2013-9-3,92.8,76.9,64.3,60.0,54.0,49.0,72,47,28,29.75,29.65,18,4,0,0.00
2013-9-4,90.0,78.4,68.6,61.0,53.4,50.0,55,43,30,29.82,29.73,14,6,0,0.00
2013-9-5,89.6,76.9,63.8,61.0,56.2,52.0,77,51,33,29.81,29.72,12,5,0,0.00
2013-9-6,94.4,78.8,69.2,57.0,51.5,49.0,55,40,25,29.77,29.66,27,8,0,0.00
2013-9-7,90.4,77.0,63.2,57.0,51.0,48.0,65,42,25,29.75,29.64,21,6,0,0.00
2013-9-8,91.5,76.4,63.7,54.0,49.2,45.0,55,39,22,29.65,29.46,23,8,0,0.00
2013-9-9,82.0,67.1,58.6,58.0,54.6,50.0,90,67,41,29.76,29.52,24,7,0,0.72
2013-9-10,68.3,61.2,57.4,58.0,56.5,55.0,92,85,67,29.98,29.73,11,3,0,0.37
2013-9-11,67.3,61.9,59.0,62.0,58.7,56.0,93,89,80,30.00,29.94,24,6,0,0.87
2013-9-12,62.5,60.1,57.7,61.0,58.2,56.0,95,94,91,30.06,29.98,20,10,0,0.86
2013-9-13,71.8,63.6,59.0,65.0,60.2,57.0,96,89,68,29.98,29.64,20,3,0,0.49
2013-9-14,77.6,64.3,57.1,61.0,56.8,54.0,92,78,51,29.77,29.61,14,4,0,0.16
2013-9-15,59.9,56.7,52.9,56.0,54.2,51.0,94,91,83,30.09,29.77,18,6,0,0.80
2013-9-16,70.8,59.4,52.8,59.0,54.5,51.0,95,85,65,30.08,29.84,11,4,0,0.00
2013-9-17,83.0,67.2,52.7,60.0,52.9,47.0,93,65,28,29.85,29.54,15,2,0,0.01
2013-9-18,81.7,68.5,57.3,54.0,49.6,46.0,76,52,35,29.60,29.47,25,4,0,0.00
2013-9-19,66.0,58.3,49.2,48.0,41.0,-99.9,84,56,41,29.98,29.60,19,4,0,0.14
2013-9-20,70.5,58.8,45.6,49.0,42.7,38.0,78,57,39,30.01,29.83,12,2,0,0.00
2013-9-21,79.8,65.8,50.7,53.0,46.2,42.0,74,51,29,29.83,29.51,12,2,0,0.00
2013-9-22,78.1,63.5,55.1,54.0,46.2,-99.9,84,56,37,29.52,29.28,27,5,0,0.15
2013-9-23,66.4,57.5,50.3,51.0,41.7,34.0,89,58,36,29.85,29.31,39,18,0,0.42
2013-9-24,71.7,58.0,46.4,45.0,40.8,34.0,75,55,35,29.96,29.66,13,3,0,0.00
2013-9-25,78.2,59.7,44.7,55.0,44.2,38.0,80,59,34,29.65,29.23,15,4,0,0.00
2013-9-26,68.4,56.5,43.2,49.0,43.4,36.0,79,63,47,29.57,29.35,11,2,0,0.00
2013-9-27,54.5,46.4,41.5,49.0,42.8,37.0,91,87,80,29.91,29.54,13,6,0,0.11
2013-9-28,63.8,50.9,37.0,40.0,35.2,28.0,88,58,37,30.08,29.91,11,2,0,0.01
2013-9-29,72.0,58.2,44.0,46.0,37.0,30.0,68,47,27,29.98,29.68,8,2,0,0.00
2013-9-30,76.0,63.5,51.5,53.0,40.3,28.0,56,43,32,29.72,29.52,10,2,0,0.00
2013-10-1,68.5,60.1,48.1,44.0,39.6,34.0,73,48,35,29.86,29.63,18,6,0,0.00
2013-10-2,73.9,58.8,48.4,48.0,41.8,34.0,74,55,35,29.77,29.67,20,4,0,0.00
2013-10-3,62.7,50.9,41.9,47.0,40.6,34.0,90,69,56,29.73,29.57,22,4,0,0.11
2013-10-4,45.0,37.4,33.3,42.0,29.6,21.0,91,75,55,30.19,29.67,40,20,0,0.34
2013-10-5,58.0,46.9,34.3,25.0,19.6,15.0,58,36,20,30.20,30.07,35,17,0,0.00
2013-10-6,70.1,53.4,34.8,42.0,31.6,17.0,68,45,29,30.17,30.06,11,1,0,0.00
2013-10-7,75.3,59.3,43.5,47.0,37.3,32.0,65,46,30,30.05,29.70,7,1,0,0.00
2013-10-8,75.4,61.1,48.3,43.0,35.7,30.0,62,40,22,29.69,29.48,14,3,0,0.00
2013-10-9,62.0,54.9,47.2,43.0,39.0,33.0,78,56,41,29.78,29.57,13,6,0,0.00
2013-10-10,55.4,48.7,43.2,47.0,41.7,37.0,87,77,59,29.78,29.39,23,3,0,0.09
2013-10-11,58.9,52.1,41.8,39.0,34.1,31.0,80,52,42,29.92,29.35,33,14,0,0.00
2013-10-12,56.0,45.9,39.4,42.0,37.7,34.0,86,74,56,30.10,29.93,8,1,0,0.02
2013-10-13,60.5,47.8,35.9,47.0,39.4,32.0,88,74,51,30.08,29.74,6,1,0,0.00
2013-10-14,51.3,45.6,37.6,46.0,36.9,26.0,88,72,54,30.09,29.66,30,12,0,0.01
2013-10-15,45.8,38.5,32.3,27.0,24.5,22.0,77,58,46,30.27,30.09,33,7,0,0.00
2013-10-16,56.7,40.9,29.0,32.0,27.6,23.0,84,63,28,30.20,29.98,6,0,0,0.00
2013-10-17,48.5,40.8,33.2,34.0,29.6,22.0,88,66,46,30.07,29.97,12,3,0,0.00
2013-10-18,46.8,35.8,29.8,33.0,28.5,26.0,92,76,47,30.20,30.06,19,3,0,0.35
2013-10-19,60.9,47.1,32.6,34.0,29.1,22.0,81,52,33,30.12,29.82,6,1,0,0.00
2013-10-20,50.5,41.2,32.8,38.0,32.8,28.0,89,74,42,30.10,29.77,23,4,0,0.12
2013-10-21,58.6,43.5,27.6,39.0,30.3,25.0,90,64,35,30.18,30.06,31,5,0,0.01
2013-10-22,65.0,51.9,40.0,39.0,34.3,29.0,70,53,37,30.12,29.96,9,1,0,0.00
2013-10-23,66.0,52.1,42.2,40.0,34.2,29.0,68,52,34,30.10,29.97,11,2,0,0.00
2013-10-24,54.2,43.6,32.9,39.0,35.0,30.0,87,73,56,30.20,30.10,5,1,0,0.00
2013-10-25,70.8,51.3,33.7,43.0,34.9,30.0,88,59,27,30.18,29.98,14,3,0,0.00
2013-10-26,62.7,52.0,36.5,38.0,34.2,28.0,77,52,39,30.20,29.98,15,4,0,0.00
2013-10-27,70.9,55.2,40.6,38.0,31.0,25.0,63,42,23,29.98,29.67,9,1,0,0.00
2013-10-28,54.3,36.2,31.2,32.0,30.0,29.0,92,81,40,30.05,29.70,13,3,0,0.01
2013-10-29,37.3,33.8,31.4,35.0,31.5,29.0,93,91,85,30.08,29.95,6,1,0,0.03
2013-10-30,42.9,36.3,31.0,39.0,33.4,26.0,93,89,67,29.94,29.83,9,1,0,0.14
2013-10-31,54.6,42.1,31.3,33.0,27.7,24.0,88,59,37,29.84,29.74,29,6,0,0.01
2013-11-1,51.9,42.8,32.6,32.0,27.0,22.0,78,55,34,30.18,29.84,24,11,0,0.00
2013-11-2,57.7,43.7,30.7,31.0,25.9,21.0,71,51,33,30.19,29.69,6,0,0,0.00
2013-11-3,65.4,48.4,35.3,33.0,26.2,18.0,76,44,20,29.70,29.41,28,6,0,0.00
2013-11-4,41.6,34.7,29.0,26.0,18.7,11.0,72,53,40,29.99,29.70,32,4,0,0.00
2013-11-5,42.6,33.5,24.2,26.0,14.5,8.0,75,48,27,30.18,29.95,33,12,0,0.00
2013-11-6,52.5,36.6,22.2,22.0,17.2,10.0,68,47,29,30.38,30.17,33,5,0,0.00
2013-11-7,54.4,41.9,29.4,27.0,22.9,18.0,70,49,32,30.40,29.95,8,0,0,0.00
2013-11-8,65.6,48.5,34.0,31.0,25.1,22.0,63,42,22,29.94,29.70,11,2,0,0.00
2013-11-9,56.6,42.8,33.9,33.0,29.1,25.0,79,60,38,30.21,29.92,12,2,0,0.00
2013-11-10,62.7,47.3,32.8,35.0,29.7,23.0,80,53,33,30.21,30.08,11,1,0,0.00
2013-11-11,56.9,39.0,29.2,33.0,25.9,22.0,88,62,37,30.64,30.08,26,4,0,0.00
2013-11-12,54.0,38.1,25.3,40.0,29.6,22.0,92,74,47,30.68,30.36,7,1,0,0.00
2013-11-13,65.3,52.3,37.9,34.0,24.5,16.0,65,36,19,30.36,29.87,15,3,0,0.00
2013-11-14,54.9,46.9,35.8,36.0,31.6,25.0,77,57,32,29.91,29.64,26,5,0,0.00
2013-11-15,62.5,44.0,32.3,34.0,28.4,22.0,81,58,22,29.63,29.39,22,6,0,0.00
2013-11-16,56.1,42.2,33.7,30.0,24.4,20.0,83,51,31,29.50,29.20,35,7,0,0.00
2013-11-17,54.7,40.2,28.8,29.0,19.1,14.0,83,46,25,30.05,29.47,37,10,0,0.00
2013-11-18,56.5,40.6,26.4,26.0,19.7,13.0,59,45,29,30.15,29.98,6,1,0,0.00
2013-11-19,51.4,43.7,34.4,31.0,23.0,15.0,60,45,34,29.97,29.65,7,1,0,0.00
2013-11-20,56.5,44.6,24.8,32.0,26.9,15.0,73,52,32,29.95,29.68,18,2,0,0.00
2013-11-21,24.0,15.8,13.0,15.0,11.4,9.0,86,82,68,30.81,29.97,11,3,0,0.00
2013-11-22,32.2,22.2,13.2,24.0,14.6,7.0,87,74,44,30.82,30.70,6,1,0,0.07
2013-11-23,34.4,26.1,20.4,21.0,16.5,7.0,81,68,42,30.78,30.44,5,0,0,0.00
2013-11-24,36.9,26.9,18.4,25.0,20.2,15.0,86,76,50,30.44,30.10,13,2,0,0.00
2013-11-25,42.5,36.8,32.0,27.0,22.8,18.0,77,58,46,30.32,30.15,13,2,0,0.00
2013-11-26,52.5,38.0,30.1,28.0,23.1,20.0,72,57,29,30.40,30.25,15,3,0,0.00
2013-11-27,58.1,40.1,25.3,31.0,24.4,18.0,78,56,29,30.24,30.02,7,0,0,0.00
2013-11-28,43.8,36.8,28.3,28.0,24.2,20.0,73,61,48,30.20,30.12,5,0,0,0.00
2013-11-29,61.2,43.9,28.7,32.0,24.9,20.0,78,51,26,30.14,30.05,4,0,0,0.00
2013-11-30,54.1,43.8,33.7,26.0,21.9,18.0,57,43,30,30.10,30.02,9,1,0,0.00
2013-12-1,55.1,44.9,36.7,28.0,24.2,21.0,56,45,30,30.08,29.75,28,4,0,0.00
2013-12-2,58.6,50.5,44.7,27.0,25.2,22.0,48,38,28,29.78,29.41,27,8,0,0.00
2013-12-3,45.6,29.7,9.2,28.0,16.9,5.0,84,61,41,29.82,29.33,18,5,0,0.00
2013-12-4,11.1,5.7,-3.2,5.0,0.3,-9.0,83,78,71,30.42,29.82,15,5,0,0.00
2013-12-5,10.5,1.1,-6.3,3.0,-4.6,-11.0,81,77,71,30.54,30.41,10,2,0,0.00
2013-12-6,5.5,0.2,-5.9,0.0,-5.0,-11.0,80,79,76,30.65,30.53,8,1,0,0.00
2013-12-7,9.9,2.5,-5.5,5.0,-2.3,-10.0,83,80,77,30.62,30.16,7,1,0,0.00
2013-12-8,13.9,6.8,1.5,8.0,2.1,-3.0,83,81,75,30.38,30.06,6,1,0,0.00
2013-12-9,19.0,7.5,-2.0,3.0,-0.5,-7.0,81,70,47,30.45,30.35,9,1,0,0.00
2013-12-10,39.3,24.3,14.1,18.0,8.4,-2.0,67,51,39,30.43,30.13,18,4,0,0.00
2013-12-11,28.8,19.7,12.7,18.0,13.7,9.0,87,78,62,30.51,30.39,6,1,0,0.00
2013-12-12,45.5,31.6,17.0,21.0,13.4,8.0,75,50,28,30.49,30.00,5,0,0,0.00
2013-12-13,48.6,36.8,27.9,23.0,16.1,7.0,59,44,29,30.15,29.84,17,4,0,0.00
2013-12-14,42.4,33.8,23.2,21.0,17.4,14.0,69,52,39,30.29,30.16,10,2,0,0.00
2013-12-15,49.3,39.7,27.8,27.0,19.2,14.0,60,45,28,30.21,30.05,15,1,0,0.00
2013-12-16,61.8,51.0,40.0,23.0,18.7,14.0,37,29,19,30.10,29.96,22,9,0,0.00
2013-12-17,54.1,44.9,33.5,29.0,20.2,15.0,50,38,26,30.21,29.95,4,1,0,0.00
2013-12-18,58.2,49.3,42.6,28.0,19.5,15.0,40,31,25,29.94,29.58,10,1,0,0.00
2013-12-19,45.0,30.7,16.2,25.0,18.5,8.0,78,62,39,29.93,29.49,21,5,0,0.00
2013-12-20,23.9,18.8,15.7,18.0,14.3,9.0,87,82,73,29.94,29.84,9,1,0,0.00
2013-12-21,32.9,23.9,11.3,25.0,18.2,8.0,89,80,43,30.02,29.76,6,1,0,0.00
2013-12-22,36.7,26.3,18.9,23.0,17.7,14.0,88,71,49,30.35,30.03,19,2,0,0.00
2013-12-23,26.6,20.8,15.1,22.0,16.9,12.0,88,85,81,30.43,30.25,5,0,0,0.10
2013-12-24,46.8,31.7,21.5,29.0,20.5,13.0,86,64,46,30.35,30.13,30,9,0,0.01
2013-12-25,39.6,30.5,21.7,22.0,16.7,11.0,75,57,40,30.47,30.28,11,1,0,0.00
2013-12-26,50.5,39.6,29.9,22.0,16.0,10.0,50,39,28,30.33,30.23,12,2,0,0.00
2013-12-27,54.7,42.5,31.6,30.0,21.3,16.0,54,44,31,30.26,29.98,8,1,0,0.00
2013-12-28,54.8,37.9,20.4,28.0,20.6,9.0,70,51,32,30.20,29.78,23,7,0,0.00
2013-12-29,36.1,25.0,14.5,20.0,13.4,9.0,85,63,41,30.31,30.03,14,2,0,0.00
2013-12-30,46.8,35.7,26.2,16.0,14.8,12.0,61,44,29,30.27,30.09,20,6,0,0.00
2013-12-31,55.4,41.8,27.2,26.0,20.5,14.0,58,44,29,30.09,29.86,14,2,0,0.00
2014-1-1,40.4,31.8,22.7,32.0,23.9,18.0,88,74,49,30.31,29.82,21,5,0,0.04
2014-1-2,38.9,28.4,19.5,26.0,20.0,16.0,88,72,46,30.38,30.10,5,0,0,0.01